sensor_id;sensor_type;location;lat;lon;timestamp;P1;durP1;ratioP1;P2;durP2;ratioP2
966;SDS011;56108;48.730;9.304;2023-10-31T00:01:02;0.70;;;0.68;;
966;SDS011;56108;48.730;9.304;2023-10-31T00:03:10;0.70;;;0.52;;
966;SDS011;56108;48.730;9.304;2023-10-31T00:05:19;0.47;;;0.47;;
966;SDS011;56108;48.730;9.304;2023-10-31T00:07:27;0.50;;;0.50;;
966;SDS011;56108;48.730;9.304;2023-10-31T00:09:36;0.70;;;0.70;;
966;SDS011;56108;48.730;9.304;2023-10-31T00:11:44;0.60;;;0.50;;
966;SDS011;56108;48.730;9.304;2023-10-31T00:13:52;0.45;;;0.40;;
966;SDS011;56108;48.730;9.304;2023-10-31T00:16:03;0.40;;;0.40;;
966;SDS011;56108;48.730;9.304;2023-10-31T00:18:12;0.50;;;0.45;;
966;SDS011;56108;48.730;9.304;2023-10-31T00:20:20;1.63;;;0.50;;
966;SDS011;56108;48.730;9.304;2023-10-31T00:22:28;0.40;;;0.22;;
966;SDS011;56108;48.730;9.304;2023-10-31T00:24:36;0.50;;;0.50;;
966;SDS011;56108;48.730;9.304;2023-10-31T00:26:44;0.50;;;0.45;;
966;SDS011;56108;48.730;9.304;2023-10-31T00:28:53;2.45;;;0.30;;
966;SDS011;56108;48.730;9.304;2023-10-31T00:31:04;0.40;;;0.28;;
966;SDS011;56108;48.730;9.304;2023-10-31T00:33:12;0.50;;;0.47;;
966;SDS011;56108;48.730;9.304;2023-10-31T00:35:21;0.30;;;0.20;;
966;SDS011;56108;48.730;9.304;2023-10-31T00:37:29;0.60;;;0.43;;
966;SDS011;56108;48.730;9.304;2023-10-31T00:39:37;0.75;;;0.40;;
966;SDS011;56108;48.730;9.304;2023-10-31T00:41:43;0.40;;;0.40;;
966;SDS011;56108;48.730;9.304;2023-10-31T00:43:52;0.50;;;0.40;;
966;SDS011;56108;48.730;9.304;2023-10-31T00:46:04;0.60;;;0.30;;
966;SDS011;56108;48.730;9.304;2023-10-31T00:48:10;0.32;;;0.22;;
966;SDS011;56108;48.730;9.304;2023-10-31T00:50:18;0.30;;;0.20;;
966;SDS011;56108;48.730;9.304;2023-10-31T00:52:26;0.63;;;0.50;;
966;SDS011;56108;48.730;9.304;2023-10-31T00:54:34;1.45;;;0.50;;
966;SDS011;56108;48.730;9.304;2023-10-31T00:56:43;0.50;;;0.40;;
966;SDS011;56108;48.730;9.304;2023-10-31T00:58:51;0.60;;;0.60;;
966;SDS011;56108;48.730;9.304;2023-10-31T01:00:59;0.43;;;0.38;;
966;SDS011;56108;48.730;9.304;2023-10-31T01:03:10;0.50;;;0.47;;
966;SDS011;56108;48.730;9.304;2023-10-31T01:05:16;0.68;;;0.38;;
966;SDS011;56108;48.730;9.304;2023-10-31T01:07:25;0.40;;;0.40;;
966;SDS011;56108;48.730;9.304;2023-10-31T01:09:33;0.40;;;0.40;;
966;SDS011;56108;48.730;9.304;2023-10-31T01:11:41;0.50;;;0.50;;
966;SDS011;56108;48.730;9.304;2023-10-31T01:13:50;0.30;;;0.28;;
966;SDS011;56108;48.730;9.304;2023-10-31T01:15:58;0.35;;;0.35;;
966;SDS011;56108;48.730;9.304;2023-10-31T01:18:10;0.40;;;0.40;;
966;SDS011;56108;48.730;9.304;2023-10-31T01:20:19;0.30;;;0.30;;
966;SDS011;56108;48.730;9.304;2023-10-31T01:22:27;0.50;;;0.50;;
966;SDS011;56108;48.730;9.304;2023-10-31T01:24:35;0.90;;;0.55;;
966;SDS011;56108;48.730;9.304;2023-10-31T01:26:41;0.40;;;0.35;;
966;SDS011;56108;48.730;9.304;2023-10-31T01:28:49;0.68;;;0.50;;
966;SDS011;56108;48.730;9.304;2023-10-31T01:30:57;0.30;;;0.30;;
966;SDS011;56108;48.730;9.304;2023-10-31T01:33:07;0.52;;;0.43;;
966;SDS011;56108;48.730;9.304;2023-10-31T01:35:18;0.38;;;0.38;;
966;SDS011;56108;48.730;9.304;2023-10-31T01:37:23;1.63;;;0.30;;
966;SDS011;56108;48.730;9.304;2023-10-31T01:39:32;0.60;;;0.60;;
966;SDS011;56108;48.730;9.304;2023-10-31T01:41:37;0.75;;;0.75;;
966;SDS011;56108;48.730;9.304;2023-10-31T01:43:48;0.40;;;0.30;;
966;SDS011;56108;48.730;9.304;2023-10-31T01:45:54;0.40;;;0.25;;
966;SDS011;56108;48.730;9.304;2023-10-31T01:48:03;0.40;;;0.40;;
966;SDS011;56108;48.730;9.304;2023-10-31T01:50:11;0.40;;;0.32;;
966;SDS011;56108;48.730;9.304;2023-10-31T01:52:22;0.30;;;0.20;;
966;SDS011;56108;48.730;9.304;2023-10-31T01:54:30;0.45;;;0.30;;
966;SDS011;56108;48.730;9.304;2023-10-31T01:56:40;0.40;;;0.40;;
966;SDS011;56108;48.730;9.304;2023-10-31T01:58:49;0.52;;;0.52;;
966;SDS011;56108;48.730;9.304;2023-10-31T02:00:59;0.50;;;0.50;;
966;SDS011;56108;48.730;9.304;2023-10-31T02:03:08;0.70;;;0.47;;
966;SDS011;56108;48.730;9.304;2023-10-31T02:05:16;3.25;;;0.60;;
966;SDS011;56108;48.730;9.304;2023-10-31T02:07:28;0.85;;;0.70;;
966;SDS011;56108;48.730;9.304;2023-10-31T02:09:37;2.97;;;1.05;;
966;SDS011;56108;48.730;9.304;2023-10-31T02:11:45;0.40;;;0.40;;
966;SDS011;56108;48.730;9.304;2023-10-31T02:13:50;0.68;;;0.68;;
966;SDS011;56108;48.730;9.304;2023-10-31T02:15:59;0.60;;;0.50;;
966;SDS011;56108;48.730;9.304;2023-10-31T02:18:08;0.85;;;0.63;;
966;SDS011;56108;48.730;9.304;2023-10-31T02:20:17;0.30;;;0.28;;
966;SDS011;56108;48.730;9.304;2023-10-31T02:22:28;0.50;;;0.50;;
966;SDS011;56108;48.730;9.304;2023-10-31T02:24:36;0.40;;;0.30;;
966;SDS011;56108;48.730;9.304;2023-10-31T02:26:44;0.80;;;0.35;;
966;SDS011;56108;48.730;9.304;2023-10-31T02:28:53;0.40;;;0.40;;
966;SDS011;56108;48.730;9.304;2023-10-31T02:31:01;0.43;;;0.40;;
966;SDS011;56108;48.730;9.304;2023-10-31T02:33:10;0.40;;;0.40;;
966;SDS011;56108;48.730;9.304;2023-10-31T02:35:18;0.68;;;0.50;;
966;SDS011;56108;48.730;9.304;2023-10-31T02:37:24;0.50;;;0.50;;
966;SDS011;56108;48.730;9.304;2023-10-31T02:39:35;2.15;;;0.50;;
966;SDS011;56108;48.730;9.304;2023-10-31T02:41:43;0.50;;;0.50;;
966;SDS011;56108;48.730;9.304;2023-10-31T02:43:52;5.38;;;0.50;;
966;SDS011;56108;48.730;9.304;2023-10-31T02:46:02;0.30;;;0.30;;
966;SDS011;56108;48.730;9.304;2023-10-31T02:48:11;0.60;;;0.40;;
966;SDS011;56108;48.730;9.304;2023-10-31T02:50:19;2.38;;;0.70;;
966;SDS011;56108;48.730;9.304;2023-10-31T02:52:28;0.75;;;0.75;;
966;SDS011;56108;48.730;9.304;2023-10-31T02:54:36;0.40;;;0.40;;
966;SDS011;56108;48.730;9.304;2023-10-31T02:56:44;1.10;;;0.50;;
966;SDS011;56108;48.730;9.304;2023-10-31T02:58:53;0.65;;;0.55;;
966;SDS011;56108;48.730;9.304;2023-10-31T03:01:01;0.50;;;0.50;;
966;SDS011;56108;48.730;9.304;2023-10-31T03:03:10;0.50;;;0.50;;
966;SDS011;56108;48.730;9.304;2023-10-31T03:05:18;0.60;;;0.52;;
966;SDS011;56108;48.730;9.304;2023-10-31T03:07:27;0.70;;;0.70;;
966;SDS011;56108;48.730;9.304;2023-10-31T03:09:37;0.70;;;0.70;;
966;SDS011;56108;48.730;9.304;2023-10-31T03:11:43;1.08;;;1.02;;
966;SDS011;56108;48.730;9.304;2023-10-31T03:13:51;0.65;;;0.55;;
966;SDS011;56108;48.730;9.304;2023-10-31T03:16:01;1.10;;;1.00;;
966;SDS011;56108;48.730;9.304;2023-10-31T03:18:10;0.43;;;0.43;;
966;SDS011;56108;48.730;9.304;2023-10-31T03:20:15;0.50;;;0.50;;
966;SDS011;56108;48.730;9.304;2023-10-31T03:22:24;0.60;;;0.60;;
966;SDS011;56108;48.730;9.304;2023-10-31T03:24:32;0.55;;;0.55;;
966;SDS011;56108;48.730;9.304;2023-10-31T03:26:43;0.70;;;0.70;;
966;SDS011;56108;48.730;9.304;2023-10-31T03:28:51;1.15;;;0.88;;
966;SDS011;56108;48.730;9.304;2023-10-31T03:31:02;0.60;;;0.60;;
966;SDS011;56108;48.730;9.304;2023-10-31T03:33:08;0.65;;;0.65;;
966;SDS011;56108;48.730;9.304;2023-10-31T03:35:16;1.27;;;0.70;;
966;SDS011;56108;48.730;9.304;2023-10-31T03:37:25;1.52;;;0.60;;
966;SDS011;56108;48.730;9.304;2023-10-31T03:39:33;0.40;;;0.40;;
966;SDS011;56108;48.730;9.304;2023-10-31T03:41:44;0.50;;;0.50;;
966;SDS011;56108;48.730;9.304;2023-10-31T03:43:52;0.40;;;0.40;;
966;SDS011;56108;48.730;9.304;2023-10-31T03:46:01;0.88;;;0.88;;
966;SDS011;56108;48.730;9.304;2023-10-31T03:48:09;0.65;;;0.63;;
966;SDS011;56108;48.730;9.304;2023-10-31T03:50:18;0.60;;;0.60;;
966;SDS011;56108;48.730;9.304;2023-10-31T03:52:26;0.88;;;0.70;;
966;SDS011;56108;48.730;9.304;2023-10-31T03:54:34;1.50;;;0.40;;
966;SDS011;56108;48.730;9.304;2023-10-31T03:56:46;0.73;;;0.60;;
966;SDS011;56108;48.730;9.304;2023-10-31T03:58:55;0.50;;;0.50;;
966;SDS011;56108;48.730;9.304;2023-10-31T04:01:03;0.82;;;0.82;;
966;SDS011;56108;48.730;9.304;2023-10-31T04:03:11;0.40;;;0.40;;
966;SDS011;56108;48.730;9.304;2023-10-31T04:05:20;0.50;;;0.50;;
966;SDS011;56108;48.730;9.304;2023-10-31T04:07:28;0.70;;;0.50;;
966;SDS011;56108;48.730;9.304;2023-10-31T04:09:36;0.50;;;0.50;;
966;SDS011;56108;48.730;9.304;2023-10-31T04:11:58;0.60;;;0.60;;
966;SDS011;56108;48.730;9.304;2023-10-31T04:14:06;0.85;;;0.85;;
966;SDS011;56108;48.730;9.304;2023-10-31T04:16:14;0.50;;;0.50;;
966;SDS011;56108;48.730;9.304;2023-10-31T04:18:23;0.70;;;0.68;;
966;SDS011;56108;48.730;9.304;2023-10-31T04:20:31;0.73;;;0.68;;
966;SDS011;56108;48.730;9.304;2023-10-31T04:22:40;0.50;;;0.50;;
966;SDS011;56108;48.730;9.304;2023-10-31T04:24:51;0.68;;;0.50;;
966;SDS011;56108;48.730;9.304;2023-10-31T04:27:01;0.38;;;0.38;;
966;SDS011;56108;48.730;9.304;2023-10-31T04:29:09;0.55;;;0.55;;
966;SDS011;56108;48.730;9.304;2023-10-31T04:31:17;0.47;;;0.47;;
966;SDS011;56108;48.730;9.304;2023-10-31T04:33:38;0.60;;;0.47;;
966;SDS011;56108;48.730;9.304;2023-10-31T04:35:48;0.50;;;0.50;;
966;SDS011;56108;48.730;9.304;2023-10-31T04:37:56;0.55;;;0.55;;
966;SDS011;56108;48.730;9.304;2023-10-31T04:40:05;0.50;;;0.50;;
966;SDS011;56108;48.730;9.304;2023-10-31T04:42:18;0.57;;;0.50;;
966;SDS011;56108;48.730;9.304;2023-10-31T04:44:27;0.75;;;0.60;;
966;SDS011;56108;48.730;9.304;2023-10-31T04:46:35;0.70;;;0.70;;
966;SDS011;56108;48.730;9.304;2023-10-31T04:48:43;0.93;;;0.75;;
966;SDS011;56108;48.730;9.304;2023-10-31T04:50:52;0.60;;;0.60;;
966;SDS011;56108;48.730;9.304;2023-10-31T04:53:02;0.63;;;0.55;;
966;SDS011;56108;48.730;9.304;2023-10-31T04:55:10;0.38;;;0.38;;
966;SDS011;56108;48.730;9.304;2023-10-31T04:57:24;0.75;;;0.40;;
966;SDS011;56108;48.730;9.304;2023-10-31T04:59:32;0.50;;;0.50;;
966;SDS011;56108;48.730;9.304;2023-10-31T05:01:40;0.45;;;0.45;;
966;SDS011;56108;48.730;9.304;2023-10-31T05:03:49;0.40;;;0.40;;
966;SDS011;56108;48.730;9.304;2023-10-31T05:06:18;0.50;;;0.45;;
966;SDS011;56108;48.730;9.304;2023-10-31T05:08:27;0.55;;;0.55;;
966;SDS011;56108;48.730;9.304;2023-10-31T05:10:36;0.50;;;0.50;;
966;SDS011;56108;48.730;9.304;2023-10-31T05:12:46;0.70;;;0.70;;
966;SDS011;56108;48.730;9.304;2023-10-31T05:14:52;0.90;;;0.90;;
966;SDS011;56108;48.730;9.304;2023-10-31T05:17:00;0.65;;;0.65;;
966;SDS011;56108;48.730;9.304;2023-10-31T05:19:07;0.47;;;0.40;;
966;SDS011;56108;48.730;9.304;2023-10-31T05:21:18;0.90;;;0.63;;
966;SDS011;56108;48.730;9.304;2023-10-31T05:23:28;0.60;;;0.57;;
966;SDS011;56108;48.730;9.304;2023-10-31T05:25:37;1.85;;;0.68;;
966;SDS011;56108;48.730;9.304;2023-10-31T05:27:48;0.95;;;0.70;;
966;SDS011;56108;48.730;9.304;2023-10-31T05:29:57;0.60;;;0.60;;
966;SDS011;56108;48.730;9.304;2023-10-31T05:32:05;0.60;;;0.55;;
966;SDS011;56108;48.730;9.304;2023-10-31T05:34:14;0.80;;;0.77;;
966;SDS011;56108;48.730;9.304;2023-10-31T05:36:23;0.60;;;0.60;;
966;SDS011;56108;48.730;9.304;2023-10-31T05:38:32;0.90;;;0.90;;
966;SDS011;56108;48.730;9.304;2023-10-31T05:40:41;1.15;;;0.80;;
966;SDS011;56108;48.730;9.304;2023-10-31T05:42:52;1.83;;;1.30;;
966;SDS011;56108;48.730;9.304;2023-10-31T05:45:02;0.77;;;0.77;;
966;SDS011;56108;48.730;9.304;2023-10-31T05:47:12;0.47;;;0.47;;
966;SDS011;56108;48.730;9.304;2023-10-31T05:49:20;0.60;;;0.60;;
966;SDS011;56108;48.730;9.304;2023-10-31T05:51:29;0.40;;;0.40;;
966;SDS011;56108;48.730;9.304;2023-10-31T05:53:38;0.70;;;0.70;;
966;SDS011;56108;48.730;9.304;2023-10-31T05:55:47;0.60;;;0.55;;
966;SDS011;56108;48.730;9.304;2023-10-31T05:57:58;0.40;;;0.40;;
966;SDS011;56108;48.730;9.304;2023-10-31T06:00:06;0.50;;;0.50;;
966;SDS011;56108;48.730;9.304;2023-10-31T06:02:16;0.50;;;0.50;;
966;SDS011;56108;48.730;9.304;2023-10-31T06:04:24;0.80;;;0.80;;
966;SDS011;56108;48.730;9.304;2023-10-31T06:06:32;1.42;;;0.90;;
966;SDS011;56108;48.730;9.304;2023-10-31T06:08:44;1.40;;;1.10;;
966;SDS011;56108;48.730;9.304;2023-10-31T06:10:53;0.65;;;0.65;;
966;SDS011;56108;48.730;9.304;2023-10-31T06:13:04;1.88;;;0.82;;
966;SDS011;56108;48.730;9.304;2023-10-31T06:15:13;1.13;;;1.10;;
966;SDS011;56108;48.730;9.304;2023-10-31T06:17:23;0.70;;;0.70;;
966;SDS011;56108;48.730;9.304;2023-10-31T06:19:36;1.00;;;0.77;;
966;SDS011;56108;48.730;9.304;2023-10-31T06:21:50;0.98;;;0.93;;
966;SDS011;56108;48.730;9.304;2023-10-31T06:23:58;1.20;;;1.00;;
966;SDS011;56108;48.730;9.304;2023-10-31T06:26:04;0.90;;;0.88;;
966;SDS011;56108;48.730;9.304;2023-10-31T06:28:16;3.97;;;1.05;;
966;SDS011;56108;48.730;9.304;2023-10-31T06:30:27;0.60;;;0.60;;
966;SDS011;56108;48.730;9.304;2023-10-31T06:32:35;0.68;;;0.68;;
966;SDS011;56108;48.730;9.304;2023-10-31T06:34:41;0.80;;;0.80;;
966;SDS011;56108;48.730;9.304;2023-10-31T06:36:50;0.70;;;0.70;;
966;SDS011;56108;48.730;9.304;2023-10-31T06:38:58;0.88;;;0.88;;
966;SDS011;56108;48.730;9.304;2023-10-31T06:41:07;0.93;;;0.90;;
966;SDS011;56108;48.730;9.304;2023-10-31T06:43:13;0.80;;;0.80;;
966;SDS011;56108;48.730;9.304;2023-10-31T06:45:24;0.68;;;0.68;;
966;SDS011;56108;48.730;9.304;2023-10-31T06:47:33;0.68;;;0.68;;
966;SDS011;56108;48.730;9.304;2023-10-31T06:49:43;0.50;;;0.50;;
966;SDS011;56108;48.730;9.304;2023-10-31T06:51:52;0.55;;;0.45;;
966;SDS011;56108;48.730;9.304;2023-10-31T06:54:00;0.65;;;0.60;;
966;SDS011;56108;48.730;9.304;2023-10-31T06:56:09;0.65;;;0.43;;
966;SDS011;56108;48.730;9.304;2023-10-31T06:58:20;0.73;;;0.73;;
966;SDS011;56108;48.730;9.304;2023-10-31T07:00:26;0.80;;;0.60;;
966;SDS011;56108;48.730;9.304;2023-10-31T07:02:36;0.68;;;0.68;;
966;SDS011;56108;48.730;9.304;2023-10-31T07:04:47;0.65;;;0.65;;
966;SDS011;56108;48.730;9.304;2023-10-31T07:06:56;0.75;;;0.75;;
966;SDS011;56108;48.730;9.304;2023-10-31T07:09:04;0.35;;;0.35;;
966;SDS011;56108;48.730;9.304;2023-10-31T07:11:14;0.70;;;0.70;;
966;SDS011;56108;48.730;9.304;2023-10-31T07:13:25;0.70;;;0.60;;
966;SDS011;56108;48.730;9.304;2023-10-31T07:15:36;0.77;;;0.75;;
966;SDS011;56108;48.730;9.304;2023-10-31T07:17:45;0.60;;;0.60;;
966;SDS011;56108;48.730;9.304;2023-10-31T07:19:53;0.70;;;0.63;;
966;SDS011;56108;48.730;9.304;2023-10-31T07:22:02;0.40;;;0.40;;
966;SDS011;56108;48.730;9.304;2023-10-31T07:24:11;1.45;;;1.35;;
966;SDS011;56108;48.730;9.304;2023-10-31T07:26:19;0.75;;;0.60;;
966;SDS011;56108;48.730;9.304;2023-10-31T07:28:31;0.60;;;0.60;;
966;SDS011;56108;48.730;9.304;2023-10-31T07:30:39;0.90;;;0.50;;
966;SDS011;56108;48.730;9.304;2023-10-31T07:32:48;0.50;;;0.40;;
966;SDS011;56108;48.730;9.304;2023-10-31T07:34:58;0.65;;;0.65;;
966;SDS011;56108;48.730;9.304;2023-10-31T07:37:07;0.70;;;0.70;;
966;SDS011;56108;48.730;9.304;2023-10-31T07:39:15;0.40;;;0.40;;
966;SDS011;56108;48.730;9.304;2023-10-31T07:41:24;1.42;;;0.50;;
966;SDS011;56108;48.730;9.304;2023-10-31T07:43:35;1.95;;;0.70;;
966;SDS011;56108;48.730;9.304;2023-10-31T07:45:45;1.02;;;0.93;;
966;SDS011;56108;48.730;9.304;2023-10-31T07:47:54;0.50;;;0.50;;
966;SDS011;56108;48.730;9.304;2023-10-31T07:50:02;0.75;;;0.45;;
966;SDS011;56108;48.730;9.304;2023-10-31T07:52:16;0.45;;;0.45;;
966;SDS011;56108;48.730;9.304;2023-10-31T07:54:24;0.57;;;0.40;;
966;SDS011;56108;48.730;9.304;2023-10-31T07:56:33;0.52;;;0.52;;
966;SDS011;56108;48.730;9.304;2023-10-31T07:58:44;0.73;;;0.50;;
966;SDS011;56108;48.730;9.304;2023-10-31T08:00:53;0.73;;;0.60;;
966;SDS011;56108;48.730;9.304;2023-10-31T08:03:03;0.50;;;0.50;;
966;SDS011;56108;48.730;9.304;2023-10-31T08:05:13;0.40;;;0.40;;
966;SDS011;56108;48.730;9.304;2023-10-31T08:07:22;0.60;;;0.60;;
966;SDS011;56108;48.730;9.304;2023-10-31T08:09:35;0.60;;;0.50;;
966;SDS011;56108;48.730;9.304;2023-10-31T08:11:45;3.72;;;0.95;;
966;SDS011;56108;48.730;9.304;2023-10-31T08:13:56;0.60;;;0.60;;
966;SDS011;56108;48.730;9.304;2023-10-31T08:16:05;0.70;;;0.65;;
966;SDS011;56108;48.730;9.304;2023-10-31T08:18:15;0.88;;;0.60;;
966;SDS011;56108;48.730;9.304;2023-10-31T08:20:23;0.40;;;0.30;;
966;SDS011;56108;48.730;9.304;2023-10-31T08:22:38;0.50;;;0.50;;
966;SDS011;56108;48.730;9.304;2023-10-31T08:24:47;0.50;;;0.50;;
966;SDS011;56108;48.730;9.304;2023-10-31T08:26:55;1.65;;;0.70;;
966;SDS011;56108;48.730;9.304;2023-10-31T08:29:06;1.33;;;0.70;;
966;SDS011;56108;48.730;9.304;2023-10-31T08:31:15;0.63;;;0.57;;
966;SDS011;56108;48.730;9.304;2023-10-31T08:33:22;0.80;;;0.70;;
966;SDS011;56108;48.730;9.304;2023-10-31T08:35:31;0.60;;;0.60;;
966;SDS011;56108;48.730;9.304;2023-10-31T08:37:39;0.75;;;0.70;;
966;SDS011;56108;48.730;9.304;2023-10-31T08:39:48;0.40;;;0.40;;
966;SDS011;56108;48.730;9.304;2023-10-31T08:41:54;1.30;;;0.55;;
966;SDS011;56108;48.730;9.304;2023-10-31T08:44:07;0.80;;;0.80;;
966;SDS011;56108;48.730;9.304;2023-10-31T08:46:13;0.75;;;0.75;;
966;SDS011;56108;48.730;9.304;2023-10-31T08:48:22;0.70;;;0.40;;
966;SDS011;56108;48.730;9.304;2023-10-31T08:50:30;0.80;;;0.80;;
966;SDS011;56108;48.730;9.304;2023-10-31T08:52:38;2.30;;;0.80;;
966;SDS011;56108;48.730;9.304;2023-10-31T08:54:47;1.02;;;0.82;;
966;SDS011;56108;48.730;9.304;2023-10-31T08:56:55;0.80;;;0.80;;
966;SDS011;56108;48.730;9.304;2023-10-31T08:59:04;0.77;;;0.77;;
966;SDS011;56108;48.730;9.304;2023-10-31T09:01:12;1.10;;;1.00;;
966;SDS011;56108;48.730;9.304;2023-10-31T09:03:21;2.67;;;0.90;;
966;SDS011;56108;48.730;9.304;2023-10-31T09:05:29;0.63;;;0.63;;
966;SDS011;56108;48.730;9.304;2023-10-31T09:07:37;0.50;;;0.50;;
966;SDS011;56108;48.730;9.304;2023-10-31T09:09:47;0.60;;;0.60;;
966;SDS011;56108;48.730;9.304;2023-10-31T09:11:55;0.85;;;0.57;;
966;SDS011;56108;48.730;9.304;2023-10-31T09:14:01;0.98;;;0.82;;
966;SDS011;56108;48.730;9.304;2023-10-31T09:16:12;0.80;;;0.80;;
966;SDS011;56108;48.730;9.304;2023-10-31T09:18:19;1.45;;;0.65;;
966;SDS011;56108;48.730;9.304;2023-10-31T09:20:28;0.60;;;0.60;;
966;SDS011;56108;48.730;9.304;2023-10-31T09:22:36;9.48;;;0.82;;
966;SDS011;56108;48.730;9.304;2023-10-31T09:24:47;1.10;;;0.80;;
966;SDS011;56108;48.730;9.304;2023-10-31T09:26:58;0.60;;;0.60;;
966;SDS011;56108;48.730;9.304;2023-10-31T09:29:06;0.73;;;0.73;;
966;SDS011;56108;48.730;9.304;2023-10-31T09:31:32;1.85;;;1.75;;
966;SDS011;56108;48.730;9.304;2023-10-31T09:33:40;1.92;;;0.95;;
966;SDS011;56108;48.730;9.304;2023-10-31T09:36:00;3.33;;;0.60;;
966;SDS011;56108;48.730;9.304;2023-10-31T09:38:08;0.60;;;0.60;;
966;SDS011;56108;48.730;9.304;2023-10-31T09:40:17;1.98;;;0.90;;
966;SDS011;56108;48.730;9.304;2023-10-31T09:42:26;1.10;;;1.00;;
966;SDS011;56108;48.730;9.304;2023-10-31T09:44:35;1.10;;;1.00;;
966;SDS011;56108;48.730;9.304;2023-10-31T09:46:46;0.88;;;0.75;;
966;SDS011;56108;48.730;9.304;2023-10-31T09:48:55;0.77;;;0.77;;
966;SDS011;56108;48.730;9.304;2023-10-31T09:51:05;3.33;;;1.05;;
966;SDS011;56108;48.730;9.304;2023-10-31T09:53:15;0.80;;;0.70;;
966;SDS011;56108;48.730;9.304;2023-10-31T09:55:24;0.93;;;0.80;;
966;SDS011;56108;48.730;9.304;2023-10-31T09:57:33;1.15;;;0.85;;
966;SDS011;56108;48.730;9.304;2023-10-31T09:59:43;1.85;;;0.70;;
966;SDS011;56108;48.730;9.304;2023-10-31T10:01:54;2.30;;;1.00;;
966;SDS011;56108;48.730;9.304;2023-10-31T10:04:02;4.85;;;0.98;;
966;SDS011;56108;48.730;9.304;2023-10-31T10:06:12;0.65;;;0.65;;
966;SDS011;56108;48.730;9.304;2023-10-31T10:08:21;3.50;;;0.60;;
966;SDS011;56108;48.730;9.304;2023-10-31T10:10:30;0.73;;;0.65;;
966;SDS011;56108;48.730;9.304;2023-10-31T10:12:40;0.73;;;0.73;;
966;SDS011;56108;48.730;9.304;2023-10-31T10:14:53;1.45;;;0.75;;
966;SDS011;56108;48.730;9.304;2023-10-31T10:17:04;0.60;;;0.55;;
966;SDS011;56108;48.730;9.304;2023-10-31T10:19:22;2.25;;;0.65;;
966;SDS011;56108;48.730;9.304;2023-10-31T10:21:33;0.77;;;0.77;;
966;SDS011;56108;48.730;9.304;2023-10-31T10:23:51;1.35;;;0.85;;
966;SDS011;56108;48.730;9.304;2023-10-31T10:26:01;1.08;;;0.98;;
966;SDS011;56108;48.730;9.304;2023-10-31T10:28:10;0.82;;;0.82;;
966;SDS011;56108;48.730;9.304;2023-10-31T10:30:18;1.15;;;0.70;;
966;SDS011;56108;48.730;9.304;2023-10-31T10:32:29;0.90;;;0.90;;
966;SDS011;56108;48.730;9.304;2023-10-31T10:34:35;1.48;;;0.95;;
966;SDS011;56108;48.730;9.304;2023-10-31T10:36:45;0.70;;;0.70;;
966;SDS011;56108;48.730;9.304;2023-10-31T10:38:56;1.23;;;0.85;;
966;SDS011;56108;48.730;9.304;2023-10-31T10:41:05;1.70;;;1.05;;
966;SDS011;56108;48.730;9.304;2023-10-31T10:43:18;1.75;;;0.90;;
966;SDS011;56108;48.730;9.304;2023-10-31T10:45:29;0.77;;;0.77;;
966;SDS011;56108;48.730;9.304;2023-10-31T10:47:38;0.63;;;0.63;;
966;SDS011;56108;48.730;9.304;2023-10-31T10:49:47;0.68;;;0.65;;
966;SDS011;56108;48.730;9.304;2023-10-31T10:52:02;2.20;;;1.15;;
966;SDS011;56108;48.730;9.304;2023-10-31T10:54:23;2.85;;;1.42;;
966;SDS011;56108;48.730;9.304;2023-10-31T10:56:38;2.30;;;1.83;;
966;SDS011;56108;48.730;9.304;2023-10-31T10:58:51;0.73;;;0.73;;
966;SDS011;56108;48.730;9.304;2023-10-31T11:01:03;0.57;;;0.57;;
966;SDS011;56108;48.730;9.304;2023-10-31T11:03:15;0.73;;;0.73;;
966;SDS011;56108;48.730;9.304;2023-10-31T11:05:25;2.80;;;0.93;;
966;SDS011;56108;48.730;9.304;2023-10-31T11:07:34;1.08;;;0.98;;
966;SDS011;56108;48.730;9.304;2023-10-31T11:09:41;0.80;;;0.80;;
966;SDS011;56108;48.730;9.304;2023-10-31T11:11:51;1.20;;;1.10;;
966;SDS011;56108;48.730;9.304;2023-10-31T11:14:01;2.80;;;1.10;;
966;SDS011;56108;48.730;9.304;2023-10-31T11:16:09;0.80;;;0.80;;
966;SDS011;56108;48.730;9.304;2023-10-31T11:18:26;1.00;;;1.00;;
966;SDS011;56108;48.730;9.304;2023-10-31T11:20:34;1.83;;;1.52;;
966;SDS011;56108;48.730;9.304;2023-10-31T11:22:45;0.90;;;0.90;;
966;SDS011;56108;48.730;9.304;2023-10-31T11:24:56;2.65;;;1.35;;
966;SDS011;56108;48.730;9.304;2023-10-31T11:27:05;1.00;;;1.00;;
966;SDS011;56108;48.730;9.304;2023-10-31T11:29:15;1.95;;;1.55;;
966;SDS011;56108;48.730;9.304;2023-10-31T11:31:26;1.30;;;1.20;;
966;SDS011;56108;48.730;9.304;2023-10-31T11:33:37;0.93;;;0.90;;
966;SDS011;56108;48.730;9.304;2023-10-31T11:35:49;2.75;;;1.30;;
966;SDS011;56108;48.730;9.304;2023-10-31T11:38:02;2.38;;;1.20;;
966;SDS011;56108;48.730;9.304;2023-10-31T11:40:20;1.20;;;1.10;;
966;SDS011;56108;48.730;9.304;2023-10-31T11:42:30;1.30;;;1.08;;
966;SDS011;56108;48.730;9.304;2023-10-31T11:44:38;0.85;;;0.85;;
966;SDS011;56108;48.730;9.304;2023-10-31T11:47:03;1.40;;;1.30;;
966;SDS011;56108;48.730;9.304;2023-10-31T11:49:14;1.00;;;1.00;;
966;SDS011;56108;48.730;9.304;2023-10-31T11:51:22;1.33;;;0.85;;
966;SDS011;56108;48.730;9.304;2023-10-31T11:53:28;1.08;;;0.95;;
966;SDS011;56108;48.730;9.304;2023-10-31T11:55:39;2.72;;;0.88;;
966;SDS011;56108;48.730;9.304;2023-10-31T11:57:48;0.80;;;0.80;;
966;SDS011;56108;48.730;9.304;2023-10-31T11:59:57;1.50;;;1.00;;
966;SDS011;56108;48.730;9.304;2023-10-31T12:02:12;0.80;;;0.80;;
966;SDS011;56108;48.730;9.304;2023-10-31T12:04:25;2.60;;;1.00;;
966;SDS011;56108;48.730;9.304;2023-10-31T12:06:34;1.60;;;0.93;;
966;SDS011;56108;48.730;9.304;2023-10-31T12:08:42;1.70;;;1.05;;
966;SDS011;56108;48.730;9.304;2023-10-31T12:10:54;1.98;;;1.38;;
966;SDS011;56108;48.730;9.304;2023-10-31T12:13:12;2.30;;;1.00;;
966;SDS011;56108;48.730;9.304;2023-10-31T12:15:21;0.82;;;0.82;;
966;SDS011;56108;48.730;9.304;2023-10-31T12:17:29;1.10;;;1.00;;
966;SDS011;56108;48.730;9.304;2023-10-31T12:19:41;0.90;;;0.90;;
966;SDS011;56108;48.730;9.304;2023-10-31T12:21:49;1.75;;;0.93;;
966;SDS011;56108;48.730;9.304;2023-10-31T12:24:01;1.55;;;1.20;;
966;SDS011;56108;48.730;9.304;2023-10-31T12:26:08;2.05;;;1.10;;
966;SDS011;56108;48.730;9.304;2023-10-31T12:28:16;1.75;;;1.65;;
966;SDS011;56108;48.730;9.304;2023-10-31T12:30:25;1.30;;;1.20;;
966;SDS011;56108;48.730;9.304;2023-10-31T12:32:33;3.25;;;0.98;;
966;SDS011;56108;48.730;9.304;2023-10-31T12:34:45;0.65;;;0.65;;
966;SDS011;56108;48.730;9.304;2023-10-31T12:36:54;0.80;;;0.80;;
966;SDS011;56108;48.730;9.304;2023-10-31T12:39:06;0.80;;;0.70;;
966;SDS011;56108;48.730;9.304;2023-10-31T12:41:18;1.10;;;1.00;;
966;SDS011;56108;48.730;9.304;2023-10-31T12:43:27;1.00;;;1.00;;
966;SDS011;56108;48.730;9.304;2023-10-31T12:45:36;1.40;;;1.30;;
966;SDS011;56108;48.730;9.304;2023-10-31T12:47:57;1.15;;;1.15;;
966;SDS011;56108;48.730;9.304;2023-10-31T12:50:11;0.80;;;0.70;;
966;SDS011;56108;48.730;9.304;2023-10-31T12:52:21;0.90;;;0.90;;
966;SDS011;56108;48.730;9.304;2023-10-31T12:54:30;0.70;;;0.60;;
966;SDS011;56108;48.730;9.304;2023-10-31T12:56:41;1.20;;;1.10;;
966;SDS011;56108;48.730;9.304;2023-10-31T12:58:49;0.80;;;0.80;;
966;SDS011;56108;48.730;9.304;2023-10-31T13:01:10;0.77;;;0.60;;
966;SDS011;56108;48.730;9.304;2023-10-31T13:03:19;0.98;;;0.88;;
966;SDS011;56108;48.730;9.304;2023-10-31T13:05:31;0.60;;;0.60;;
966;SDS011;56108;48.730;9.304;2023-10-31T13:07:44;2.75;;;1.05;;
966;SDS011;56108;48.730;9.304;2023-10-31T13:09:57;1.50;;;1.40;;
966;SDS011;56108;48.730;9.304;2023-10-31T13:12:08;1.60;;;1.50;;
966;SDS011;56108;48.730;9.304;2023-10-31T13:14:19;0.70;;;0.70;;
966;SDS011;56108;48.730;9.304;2023-10-31T13:16:24;0.40;;;0.40;;
966;SDS011;56108;48.730;9.304;2023-10-31T13:18:35;0.50;;;0.47;;
966;SDS011;56108;48.730;9.304;2023-10-31T13:20:46;0.40;;;0.40;;
966;SDS011;56108;48.730;9.304;2023-10-31T13:22:54;0.50;;;0.50;;
966;SDS011;56108;48.730;9.304;2023-10-31T13:25:03;0.50;;;0.50;;